Terminal Aerodrome Forecast
Issued by NWS

Home | Current Version | Previous Version | Text Only | Print | Product List | Glossary On
Versions: 1 2 3 4 5 6 7 8 9 10 11 12 13 14 15 16 17 18 19 20 21
000
FTUS44 KLZK 291730
TAFLIT
TAF
KLIT 291730Z 2918/3018 14016G24KT P6SM SCT090 BKN250
     FM292300 16010G20KT P6SM VCTS SCT025 BKN050CB
     FM300200 16012G22KT 5SM -TSRA BR BKN025CB OVC060
     FM300900 21008G16KT P6SM SCT025 BKN080
     FM301200 24010KT P6SM BKN250=

USA.gov is the U.S. government's official web portal to all federal, state and local government web resources and services.